createdAt,value
2023-10-03T00:00:56.366Z,100.00
2023-10-03T00:03:24.574Z,100.00
2023-10-03T00:05:52.574Z,100.00
2023-10-03T00:08:19.977Z,100.00
2023-10-03T00:10:46.651Z,100.00
2023-10-03T00:13:13.573Z,100.00
2023-10-03T00:15:44.858Z,100.00
2023-10-03T00:18:15.743Z,100.00
2023-10-03T00:20:44.109Z,100.00
2023-10-03T00:23:10.940Z,100.00
2023-10-03T00:25:37.867Z,100.00
2023-10-03T00:28:08.076Z,100.00
2023-10-03T00:30:37.671Z,100.00
2023-10-03T00:33:06.460Z,100.00
2023-10-03T00:35:33.447Z,100.00
2023-10-03T00:38:01.364Z,100.00
2023-10-03T00:40:28.972Z,100.00
2023-10-03T00:43:00.345Z,100.00
2023-10-03T00:45:28.276Z,100.00
2023-10-03T00:48:02.554Z,100.00
2023-10-03T00:50:32.682Z,100.00
2023-10-03T00:53:09.868Z,100.00
2023-10-03T00:55:40.902Z,100.00
2023-10-03T00:58:12.585Z,100.00
2023-10-03T01:00:47.053Z,100.00
2023-10-03T01:03:25.953Z,100.00
2023-10-03T01:05:53.582Z,100.00
2023-10-03T01:08:21.153Z,100.00
2023-10-03T01:10:48.047Z,100.00
2023-10-03T01:13:14.765Z,100.00
2023-10-03T01:15:41.515Z,100.00
2023-10-03T01:18:13.647Z,100.00
2023-10-03T01:20:43.226Z,100.00
2023-10-03T01:23:14.504Z,100.00
2023-10-03T01:25:44.210Z,100.00
2023-10-03T01:28:12.455Z,100.00
2023-10-03T01:30:42.207Z,100.00
2023-10-03T01:33:10.556Z,100.00
2023-10-03T01:35:37.297Z,100.00
2023-10-03T01:38:05.808Z,100.00
2023-10-03T01:40:32.963Z,100.00
2023-10-03T01:42:59.674Z,100.00
2023-10-03T01:45:33.532Z,100.00
2023-10-03T01:48:00.757Z,100.00
2023-10-03T01:50:30.526Z,100.00
2023-10-03T01:52:57.139Z,100.00
2023-10-03T01:55:23.712Z,100.00
2023-10-03T01:57:51.130Z,100.00
2023-10-03T02:00:25.863Z,100.00
2023-10-03T02:02:57.948Z,100.00
2023-10-03T02:05:27.385Z,100.00
2023-10-03T02:07:59.069Z,100.00
2023-10-03T02:10:27.303Z,100.00
2023-10-03T02:12:54.300Z,100.00
2023-10-03T02:15:23.634Z,100.00
2023-10-03T02:17:58.349Z,100.00
2023-10-03T02:20:31.819Z,100.00
2023-10-03T02:22:58.907Z,100.00
2023-10-03T02:25:29.120Z,100.00
2023-10-03T02:27:57.825Z,100.00
2023-10-03T02:30:28.736Z,100.00
2023-10-03T02:32:58.319Z,100.00
2023-10-03T02:35:26.961Z,100.00
2023-10-03T02:37:58.229Z,100.00
2023-10-03T02:40:28.219Z,100.00
2023-10-03T02:42:55.846Z,100.00
2023-10-03T02:45:23.966Z,100.00
2023-10-03T02:47:52.708Z,100.00
2023-10-03T02:50:19.373Z,100.00
2023-10-03T02:52:49.159Z,100.00
2023-10-03T02:55:18.160Z,100.00
2023-10-03T02:57:46.094Z,100.00
2023-10-03T03:00:13.540Z,100.00
2023-10-03T03:02:44.444Z,100.00
2023-10-03T03:05:13.030Z,100.00
2023-10-03T03:07:39.531Z,100.00
2023-10-03T03:10:07.012Z,100.00
2023-10-03T03:12:36.614Z,100.00
2023-10-03T03:15:06.123Z,100.00
2023-10-03T03:17:33.079Z,100.00
2023-10-03T03:20:00.357Z,100.00
2023-10-03T03:22:27.452Z,100.00
2023-10-03T03:24:54.729Z,100.00
2023-10-03T03:27:27.129Z,100.00
2023-10-03T03:30:19.664Z,100.00
2023-10-03T03:32:46.724Z,100.00
2023-10-03T03:35:13.456Z,100.00
2023-10-03T03:37:40.358Z,100.00
2023-10-03T03:40:14.612Z,100.00
2023-10-03T03:42:41.115Z,100.00
2023-10-03T03:45:08.391Z,100.00
2023-10-03T03:47:35.043Z,100.00
2023-10-03T03:50:11.427Z,100.00
2023-10-03T03:52:38.155Z,100.00
2023-10-03T03:55:05.291Z,100.00
2023-10-03T03:57:31.802Z,100.00
2023-10-03T03:59:58.362Z,100.00
2023-10-03T04:02:25.315Z,100.00
2023-10-03T04:04:51.833Z,100.00
2023-10-03T04:07:18.345Z,100.00
2023-10-03T04:09:45.966Z,100.00
2023-10-03T04:12:14.449Z,100.00
2023-10-03T04:14:41.005Z,100.00
2023-10-03T04:17:10.128Z,100.00
2023-10-03T04:19:36.662Z,100.00
2023-10-03T04:22:03.189Z,100.00
2023-10-03T04:24:30.455Z,100.00
2023-10-03T04:26:58.452Z,100.00
2023-10-03T04:29:25.006Z,100.00
2023-10-03T04:31:51.511Z,100.00
2023-10-03T04:34:21.551Z,100.00
2023-10-03T04:36:48.973Z,100.00
2023-10-03T04:39:15.696Z,100.00
2023-10-03T04:41:45.141Z,100.00
2023-10-03T04:44:17.367Z,100.00
2023-10-03T04:46:46.488Z,100.00
2023-10-03T04:49:13.829Z,100.00
2023-10-03T04:51:40.764Z,100.00
2023-10-03T04:54:07.386Z,100.00
2023-10-03T04:56:33.929Z,100.00
2023-10-03T04:59:01.634Z,100.00
2023-10-03T05:01:28.304Z,100.00
2023-10-03T05:03:55.373Z,100.00
2023-10-03T05:06:22.479Z,100.00
2023-10-03T05:08:49.569Z,100.00
2023-10-03T05:11:16.089Z,100.00
2023-10-03T05:13:44.644Z,100.00
2023-10-03T05:16:11.244Z,100.00
2023-10-03T05:18:38.344Z,100.00
2023-10-03T05:21:05.109Z,100.00
2023-10-03T05:23:31.708Z,100.00
2023-10-03T05:25:58.334Z,100.00
2023-10-03T05:28:24.860Z,100.00
2023-10-03T05:30:51.627Z,100.00
2023-10-03T05:33:18.281Z,100.00
2023-10-03T05:35:46.898Z,100.00
2023-10-03T05:38:13.489Z,100.00
2023-10-03T05:40:41.031Z,100.00
2023-10-03T05:43:08.588Z,100.00
2023-10-03T05:45:36.851Z,100.00
2023-10-03T05:48:05.175Z,100.00
2023-10-03T05:50:33.912Z,100.00
2023-10-03T05:53:00.867Z,100.00
2023-10-03T05:55:27.417Z,100.00
2023-10-03T05:57:54.589Z,100.00
2023-10-03T06:00:21.281Z,100.00
2023-10-03T06:02:48.823Z,100.00
2023-10-03T06:05:16.556Z,100.00
2023-10-03T06:07:44.338Z,100.00
2023-10-03T06:10:12.137Z,100.00
2023-10-03T06:12:39.233Z,100.00
2023-10-03T06:15:06.799Z,100.00
2023-10-03T06:17:34.153Z,100.00
2023-10-03T06:20:00.826Z,100.00
2023-10-03T06:22:27.664Z,100.00
2023-10-03T06:24:58.918Z,100.00
2023-10-03T06:27:28.329Z,100.00
2023-10-03T06:29:55.472Z,100.00
2023-10-03T06:32:22.359Z,100.00
2023-10-03T06:34:48.958Z,100.00
2023-10-03T06:37:15.518Z,100.00
2023-10-03T06:39:43.265Z,100.00
2023-10-03T06:42:10.137Z,100.00
2023-10-03T06:44:42.042Z,100.00
2023-10-03T06:47:10.208Z,100.00
2023-10-03T06:49:37.229Z,100.00
2023-10-03T06:52:05.096Z,100.00
2023-10-03T06:54:31.791Z,100.00
2023-10-03T06:56:58.418Z,100.00
2023-10-03T06:59:25.112Z,100.00
2023-10-03T07:01:51.994Z,100.00
2023-10-03T07:04:19.935Z,100.00
2023-10-03T07:06:47.248Z,100.00
2023-10-03T07:09:15.350Z,100.00
2023-10-03T07:11:42.412Z,100.00
2023-10-03T07:14:16.993Z,100.00
2023-10-03T07:16:47.914Z,100.00
2023-10-03T07:19:17.262Z,100.00
2023-10-03T07:21:44.111Z,100.00
2023-10-03T07:24:10.689Z,100.00
2023-10-03T07:26:37.346Z,100.00
2023-10-03T07:29:04.404Z,100.00
2023-10-03T07:31:35.305Z,100.00
2023-10-03T07:34:02.458Z,100.00
2023-10-03T07:36:29.004Z,100.00
2023-10-03T07:38:55.696Z,100.00
2023-10-03T07:41:23.067Z,100.00
2023-10-03T07:43:50.095Z,100.00
2023-10-03T07:46:24.250Z,100.00
2023-10-03T07:49:00.137Z,100.00
2023-10-03T07:51:27.943Z,100.00
2023-10-03T07:53:56.753Z,100.00
2023-10-03T07:56:32.061Z,100.00
2023-10-03T07:59:03.391Z,100.00
2023-10-03T08:01:57.385Z,100.00
2023-10-03T08:04:26.732Z,100.00
2023-10-03T08:06:53.292Z,100.00
2023-10-03T08:09:25.602Z,100.00
2023-10-03T08:11:53.672Z,100.00
2023-10-03T08:14:20.223Z,100.00
2023-10-03T08:16:48.399Z,100.00
2023-10-03T08:19:22.819Z,100.00
2023-10-03T08:21:50.178Z,100.00
2023-10-03T08:24:20.460Z,100.00
2023-10-03T08:26:52.296Z,100.00
2023-10-03T08:29:22.725Z,100.00
2023-10-03T08:32:01.420Z,100.00
2023-10-03T08:34:31.695Z,100.00
2023-10-03T08:37:03.197Z,100.00
2023-10-03T08:39:33.791Z,100.00
2023-10-03T08:42:13.475Z,100.00
2023-10-03T08:44:59.928Z,100.00
2023-10-03T08:47:39.907Z,100.00
2023-10-03T08:50:12.344Z,100.00
2023-10-03T08:52:51.162Z,100.00
2023-10-03T08:55:21.772Z,100.00
2023-10-03T08:57:50.139Z,100.00
2023-10-03T09:00:17.789Z,100.00
2023-10-03T09:02:52.643Z,100.00
2023-10-03T09:05:21.782Z,100.00
2023-10-03T09:07:48.879Z,100.00
2023-10-03T09:10:24.272Z,100.00
2023-10-03T09:12:52.364Z,100.00
2023-10-03T09:15:23.808Z,100.00
2023-10-03T09:17:54.205Z,100.00
2023-10-03T09:20:22.546Z,100.00
2023-10-03T09:22:49.839Z,100.00
2023-10-03T09:25:22.857Z,100.00
2023-10-03T09:27:49.520Z,100.00
2023-10-03T09:30:39.584Z,100.00
2023-10-03T09:33:07.570Z,100.00
2023-10-03T09:35:35.227Z,100.00
2023-10-03T09:38:09.738Z,100.00
2023-10-03T09:40:52.607Z,100.00
2023-10-03T09:43:20.813Z,100.00
2023-10-03T09:45:48.560Z,100.00
2023-10-03T09:48:17.065Z,100.00
2023-10-03T09:50:54.578Z,100.00
2023-10-03T09:53:28.968Z,100.00
2023-10-03T09:55:57.303Z,100.00
2023-10-03T09:58:32.265Z,100.00
2023-10-03T10:00:59.540Z,100.00
2023-10-03T10:03:34.439Z,100.00
2023-10-03T10:06:13.936Z,100.00
2023-10-03T10:08:59.647Z,100.00
2023-10-03T10:11:28.426Z,100.00
2023-10-03T10:14:12.200Z,100.00
2023-10-03T10:17:17.748Z,100.00
2023-10-03T10:20:09.936Z,100.00
2023-10-03T10:22:59.327Z,100.00
2023-10-03T10:25:31.688Z,100.00
2023-10-03T10:28:08.902Z,100.00
2023-10-03T10:30:36.475Z,100.00
2023-10-03T10:33:24.889Z,100.00
2023-10-03T10:36:04.568Z,100.00
2023-10-03T10:38:34.420Z,100.00
2023-10-03T10:41:18.304Z,100.00
2023-10-03T10:44:15.958Z,100.00
2023-10-03T10:46:45.721Z,100.00
2023-10-03T10:49:38.109Z,100.00
2023-10-03T10:52:11.246Z,100.00
2023-10-03T10:54:44.117Z,100.00
2023-10-03T10:57:12.217Z,100.00
2023-10-03T10:59:42.359Z,100.00
2023-10-03T11:02:19.088Z,100.00
2023-10-03T11:04:53.797Z,100.00
2023-10-03T11:07:24.361Z,100.00
2023-10-03T11:09:55.511Z,100.00
2023-10-03T11:12:29.824Z,100.00
2023-10-03T11:14:57.607Z,100.00
2023-10-03T11:17:25.392Z,100.00
2023-10-03T11:19:53.900Z,100.00
2023-10-03T11:22:20.764Z,100.00
2023-10-03T11:24:47.303Z,100.00
2023-10-03T11:27:31.049Z,100.00
2023-10-03T11:29:58.310Z,100.00
2023-10-03T11:32:32.041Z,100.00
2023-10-03T11:34:59.784Z,100.00
2023-10-03T11:37:31.115Z,100.00
2023-10-03T11:40:17.352Z,100.00
2023-10-03T11:42:45.358Z,100.00
2023-10-03T11:45:16.788Z,100.00
2023-10-03T11:47:43.565Z,100.00
2023-10-03T11:50:11.221Z,100.00
2023-10-03T11:52:39.035Z,100.00
2023-10-03T11:55:10.147Z,100.00
2023-10-03T11:57:36.778Z,100.00
2023-10-03T12:00:15.865Z,100.00
2023-10-03T12:02:51.136Z,100.00
2023-10-03T12:05:17.708Z,100.00
2023-10-03T12:07:48.433Z,100.00
2023-10-03T12:10:15.275Z,100.00
2023-10-03T12:12:41.997Z,100.00
2023-10-03T12:15:18.095Z,100.00
2023-10-03T12:17:49.877Z,100.00
2023-10-03T12:20:19.349Z,100.00
2023-10-03T12:22:48.502Z,100.00
2023-10-03T12:25:17.910Z,100.00
2023-10-03T12:27:45.549Z,100.00
2023-10-03T12:30:14.527Z,100.00
2023-10-03T12:32:42.584Z,100.00
2023-10-03T12:35:10.830Z,100.00
2023-10-03T12:37:38.853Z,100.00
2023-10-03T12:40:14.380Z,100.00
2023-10-03T12:42:45.065Z,100.00
2023-10-03T12:45:16.303Z,100.00
2023-10-03T12:47:49.061Z,100.00
2023-10-03T12:50:22.845Z,100.00
2023-10-03T12:52:49.710Z,100.00
2023-10-03T12:55:20.023Z,100.00
2023-10-03T12:57:49.701Z,100.00
2023-10-03T13:00:21.578Z,100.00
2023-10-03T13:02:50.429Z,100.00
2023-10-03T13:05:19.187Z,100.00
2023-10-03T13:07:49.165Z,100.00
2023-10-03T13:10:16.891Z,100.00
2023-10-03T13:12:43.485Z,100.00
2023-10-03T13:15:19.134Z,100.00
2023-10-03T13:17:47.182Z,100.00
2023-10-03T13:20:14.360Z,100.00
2023-10-03T13:22:43.225Z,100.00
2023-10-03T13:25:11.531Z,100.00
2023-10-03T13:27:38.489Z,100.00
2023-10-03T13:30:11.401Z,100.00
2023-10-03T13:32:39.267Z,100.00
2023-10-03T13:35:25.576Z,100.00
2023-10-03T13:37:52.759Z,100.00
2023-10-03T13:40:19.540Z,100.00
2023-10-03T13:42:48.686Z,100.00
2023-10-03T13:45:16.946Z,100.00
2023-10-03T13:47:44.481Z,100.00
2023-10-03T13:50:13.437Z,100.00
2023-10-03T13:52:42.034Z,100.00
2023-10-03T13:55:11.307Z,100.00
2023-10-03T13:57:38.710Z,100.00
2023-10-03T14:00:12.757Z,100.00
2023-10-03T14:02:40.404Z,100.00
2023-10-03T14:05:11.285Z,100.00
2023-10-03T14:07:38.295Z,100.00
2023-10-03T14:10:10.739Z,100.00
2023-10-03T14:12:37.454Z,100.00
2023-10-03T14:15:04.718Z,100.00
2023-10-03T14:17:31.411Z,100.00
2023-10-03T14:19:57.953Z,100.00
2023-10-03T14:22:24.646Z,100.00
2023-10-03T14:24:51.604Z,100.00
2023-10-03T14:27:18.223Z,100.00
2023-10-03T14:29:44.867Z,100.00
2023-10-03T14:32:12.195Z,100.00
2023-10-03T14:34:42.429Z,100.00
2023-10-03T14:37:10.591Z,100.00
2023-10-03T14:39:37.448Z,100.00
2023-10-03T14:42:04.334Z,100.00
2023-10-03T14:44:31.036Z,100.00
2023-10-03T14:46:58.667Z,100.00
2023-10-03T14:49:26.093Z,100.00
2023-10-03T14:51:53.700Z,100.00
2023-10-03T14:54:20.376Z,100.00
2023-10-03T14:56:50.073Z,100.00
2023-10-03T14:59:16.885Z,100.00
2023-10-03T15:01:44.924Z,97.94
2023-10-03T15:04:12.048Z,95.56
2023-10-03T15:06:43.713Z,91.49
2023-10-03T15:09:10.648Z,92.46
2023-10-03T15:11:37.345Z,87.57
2023-10-03T15:14:05.459Z,86.52
2023-10-03T15:16:34.336Z,83.88
2023-10-03T15:19:06.273Z,83.87
2023-10-03T15:21:35.935Z,76.80
2023-10-03T15:24:03.080Z,83.82
2023-10-03T15:26:31.163Z,85.33
2023-10-03T15:28:57.862Z,85.89
2023-10-03T15:31:25.997Z,86.57
2023-10-03T15:33:56.515Z,88.63
2023-10-03T15:36:23.208Z,86.09
2023-10-03T15:38:49.849Z,86.39
2023-10-03T15:41:16.613Z,84.87
2023-10-03T15:43:46.643Z,83.30
2023-10-03T15:46:13.280Z,82.27
2023-10-03T15:48:39.906Z,80.55
2023-10-03T15:51:13.828Z,80.09
2023-10-03T15:53:42.160Z,79.12
2023-10-03T15:56:11.249Z,79.06
2023-10-03T15:58:38.317Z,76.91
2023-10-03T16:01:04.973Z,76.71
2023-10-03T16:03:31.675Z,76.51
2023-10-03T16:05:59.135Z,75.89
2023-10-03T16:08:30.793Z,75.64
2023-10-03T16:10:58.245Z,76.55
2023-10-03T16:13:24.820Z,77.37
2023-10-03T16:15:51.478Z,78.75
2023-10-03T16:18:18.101Z,79.26
2023-10-03T16:20:47.984Z,80.14
2023-10-03T16:23:14.947Z,80.95
2023-10-03T16:25:42.327Z,81.72
2023-10-03T16:28:09.077Z,83.29
2023-10-03T16:30:35.687Z,84.05
2023-10-03T16:33:02.350Z,85.34
2023-10-03T16:35:29.013Z,86.46
2023-10-03T16:37:55.692Z,90.59
2023-10-03T16:40:23.748Z,94.22
2023-10-03T16:42:50.490Z,98.17
2023-10-03T16:45:18.747Z,100.00
2023-10-03T16:47:48.802Z,100.00
2023-10-03T16:50:17.994Z,100.00
2023-10-03T16:52:45.469Z,100.00
2023-10-03T16:55:12.957Z,100.00
2023-10-03T16:57:40.392Z,100.00
2023-10-03T17:00:13.861Z,100.00
2023-10-03T17:02:42.020Z,100.00
2023-10-03T17:05:12.171Z,100.00
2023-10-03T17:07:42.843Z,100.00
2023-10-03T17:10:16.899Z,100.00
2023-10-03T17:12:43.519Z,100.00
2023-10-03T17:15:10.986Z,100.00
2023-10-03T17:17:40.822Z,100.00
2023-10-03T17:20:09.393Z,100.00
2023-10-03T17:22:36.260Z,100.00
2023-10-03T17:25:02.945Z,100.00
2023-10-03T17:27:29.692Z,100.00
2023-10-03T17:29:56.340Z,100.00
2023-10-03T17:32:22.971Z,100.00
2023-10-03T17:34:49.525Z,100.00
2023-10-03T17:37:17.522Z,100.00
2023-10-03T17:39:45.056Z,100.00
2023-10-03T17:42:11.803Z,100.00
2023-10-03T17:44:38.430Z,100.00
2023-10-03T17:47:05.276Z,100.00
2023-10-03T17:49:32.266Z,100.00
2023-10-03T17:51:58.839Z,100.00
2023-10-03T17:54:33.780Z,100.00
2023-10-03T17:57:00.833Z,100.00
2023-10-03T17:59:27.423Z,100.00
2023-10-03T18:01:58.363Z,100.00
2023-10-03T18:04:25.209Z,100.00
2023-10-03T18:06:51.994Z,100.00
2023-10-03T18:09:23.323Z,100.00
2023-10-03T18:11:50.909Z,100.00
2023-10-03T18:14:17.850Z,100.00
2023-10-03T18:16:44.658Z,100.00
2023-10-03T18:19:11.510Z,100.00
2023-10-03T18:21:38.320Z,100.00
2023-10-03T18:24:05.534Z,100.00
2023-10-03T18:26:32.286Z,100.00
2023-10-03T18:29:00.057Z,100.00
2023-10-03T18:31:26.799Z,100.00
2023-10-03T18:33:56.926Z,100.00
2023-10-03T18:36:24.312Z,100.00
2023-10-03T18:38:51.120Z,100.00
2023-10-03T18:41:20.468Z,100.00
2023-10-03T18:43:48.647Z,100.00
2023-10-03T18:46:15.416Z,100.00
2023-10-03T18:48:42.236Z,100.00
2023-10-03T18:51:09.051Z,100.00
2023-10-03T18:53:37.170Z,100.00
2023-10-03T18:56:04.315Z,100.00
2023-10-03T18:58:30.872Z,100.00
2023-10-03T19:00:58.768Z,100.00
2023-10-03T19:03:27.493Z,100.00
2023-10-03T19:05:54.619Z,100.00
2023-10-03T19:08:21.275Z,100.00
2023-10-03T19:10:50.748Z,100.00
2023-10-03T19:13:17.369Z,100.00
2023-10-03T19:15:43.922Z,100.00
2023-10-03T19:18:10.651Z,100.00
2023-10-03T19:20:37.301Z,100.00
2023-10-03T19:23:04.331Z,100.00
2023-10-03T19:25:33.849Z,100.00
2023-10-03T19:28:02.278Z,100.00
2023-10-03T19:30:29.050Z,100.00
2023-10-03T19:32:55.865Z,100.00
2023-10-03T19:35:22.879Z,100.00
2023-10-03T19:37:49.675Z,100.00
2023-10-03T19:40:18.129Z,100.00
2023-10-03T19:42:44.918Z,100.00
2023-10-03T19:45:11.789Z,100.00
2023-10-03T19:47:38.400Z,100.00
2023-10-03T19:50:06.562Z,100.00
2023-10-03T19:52:37.025Z,100.00
2023-10-03T19:55:07.612Z,100.00
2023-10-03T19:57:38.018Z,100.00
2023-10-03T20:00:08.152Z,100.00
2023-10-03T20:02:34.901Z,100.00
2023-10-03T20:05:01.518Z,100.00
2023-10-03T20:07:28.116Z,100.00
2023-10-03T20:09:54.636Z,100.00
2023-10-03T20:12:21.570Z,100.00
2023-10-03T20:14:48.249Z,100.00
2023-10-03T20:17:15.693Z,100.00
2023-10-03T20:19:42.624Z,100.00
2023-10-03T20:22:09.402Z,100.00
2023-10-03T20:24:36.050Z,100.00
2023-10-03T20:27:02.784Z,100.00
2023-10-03T20:29:29.357Z,100.00
2023-10-03T20:31:55.945Z,100.00
2023-10-03T20:34:22.420Z,100.00
2023-10-03T20:36:49.137Z,100.00
2023-10-03T20:39:15.975Z,100.00
2023-10-03T20:41:42.648Z,100.00
2023-10-03T20:44:09.498Z,100.00
2023-10-03T20:46:36.088Z,100.00
2023-10-03T20:49:02.884Z,100.00
2023-10-03T20:51:29.734Z,100.00
2023-10-03T20:53:56.423Z,100.00
2023-10-03T20:56:22.923Z,100.00
2023-10-03T20:59:02.320Z,100.00
2023-10-03T21:01:29.006Z,100.00
2023-10-03T21:03:55.600Z,100.00
2023-10-03T21:06:22.190Z,100.00
2023-10-03T21:08:48.781Z,100.00
2023-10-03T21:11:17.439Z,100.00
2023-10-03T21:13:46.500Z,100.00
2023-10-03T21:16:13.165Z,100.00
2023-10-03T21:18:39.922Z,100.00
2023-10-03T21:21:12.536Z,100.00
2023-10-03T21:23:39.670Z,100.00
2023-10-03T21:26:07.779Z,100.00
2023-10-03T21:28:35.943Z,100.00
2023-10-03T21:31:03.749Z,100.00
2023-10-03T21:33:30.610Z,100.00
2023-10-03T21:35:57.299Z,100.00
2023-10-03T21:38:24.896Z,100.00
2023-10-03T21:40:51.456Z,100.00
2023-10-03T21:43:18.067Z,100.00
2023-10-03T21:45:44.727Z,100.00
2023-10-03T21:48:11.422Z,100.00
2023-10-03T21:50:38.574Z,100.00
2023-10-03T21:53:05.821Z,100.00
2023-10-03T21:55:32.520Z,100.00
2023-10-03T21:58:02.080Z,100.00
2023-10-03T22:00:36.232Z,100.00
2023-10-03T22:03:04.922Z,100.00
2023-10-03T22:05:32.718Z,100.00
2023-10-03T22:07:59.461Z,100.00
2023-10-03T22:10:25.980Z,100.00
2023-10-03T22:12:53.167Z,100.00
2023-10-03T22:15:20.085Z,100.00
2023-10-03T22:17:46.992Z,100.00
2023-10-03T22:20:13.878Z,100.00
2023-10-03T22:22:41.516Z,100.00
2023-10-03T22:25:11.541Z,100.00
2023-10-03T22:27:38.106Z,100.00
2023-10-03T22:30:06.842Z,100.00
2023-10-03T22:32:34.132Z,100.00
2023-10-03T22:35:00.760Z,100.00
2023-10-03T22:37:27.290Z,100.00
2023-10-03T22:39:53.826Z,100.00
2023-10-03T22:42:20.469Z,100.00
2023-10-03T22:44:47.570Z,100.00
2023-10-03T22:47:14.201Z,100.00
2023-10-03T22:49:40.705Z,100.00
2023-10-03T22:52:07.240Z,100.00
2023-10-03T22:54:35.606Z,100.00
2023-10-03T22:57:02.164Z,100.00
2023-10-03T22:59:28.784Z,100.00
2023-10-03T23:01:55.616Z,100.00
2023-10-03T23:04:22.991Z,100.00
2023-10-03T23:06:49.537Z,100.00
2023-10-03T23:09:16.104Z,100.00
2023-10-03T23:11:44.963Z,100.00
2023-10-03T23:14:11.972Z,100.00
2023-10-03T23:16:38.547Z,100.00
2023-10-03T23:19:07.093Z,100.00
2023-10-03T23:21:34.138Z,100.00
2023-10-03T23:24:00.941Z,100.00
2023-10-03T23:26:27.694Z,100.00
2023-10-03T23:28:54.236Z,100.00
2023-10-03T23:31:20.819Z,100.00
2023-10-03T23:33:47.422Z,100.00
2023-10-03T23:36:14.031Z,100.00
2023-10-03T23:38:41.183Z,100.00
2023-10-03T23:41:07.898Z,100.00
2023-10-03T23:43:34.713Z,100.00
2023-10-03T23:46:10.758Z,100.00
2023-10-03T23:48:37.748Z,100.00
2023-10-03T23:51:04.518Z,100.00
2023-10-03T23:53:31.460Z,100.00
2023-10-03T23:55:59.576Z,100.00
2023-10-03T23:58:26.425Z,100.00
